createdAt,value
2023-03-16T00:15:34.116Z,1021.67
2023-03-16T00:43:47.879Z,1021.58
2023-03-16T01:12:03.300Z,1021.41
2023-03-16T01:40:24.071Z,1021.3
2023-03-16T02:08:49.692Z,1021.12
2023-03-16T02:37:09.571Z,1020.86
2023-03-16T03:05:26.618Z,1020.72
2023-03-16T03:33:39.478Z,1020.44
2023-03-16T04:02:04.706Z,1020.41
2023-03-16T04:30:18.763Z,1020.29
2023-03-16T04:58:44.745Z,1020.23
2023-03-16T05:26:59.587Z,1020.09
2023-03-16T05:55:17.486Z,1020.12
2023-03-16T06:23:40.452Z,1020.17
2023-03-16T06:52:14.101Z,1020.39
2023-03-16T07:20:32.930Z,1020.07
2023-03-16T07:49:30.490Z,1019.85
2023-03-16T08:17:52.958Z,1019.77
2023-03-16T08:46:07.294Z,1019.87
2023-03-16T09:14:26.178Z,1019.19
2023-03-16T09:43:19.108Z,1019.29
2023-03-16T10:11:44.164Z,1019.11
2023-03-16T10:39:53.360Z,1018.83
2023-03-16T11:08:23.277Z,1018.76
2023-03-16T11:37:13.122Z,1018.49
2023-03-16T12:06:24.112Z,1018.1
2023-03-16T12:34:29.830Z,1017.86
2023-03-16T13:02:49.043Z,1017.61
2023-03-16T13:31:19.357Z,1017.21
2023-03-16T13:59:21.806Z,1016.81
2023-03-16T14:27:53.723Z,1016.57
2023-03-16T14:56:17.514Z,1016.44
2023-03-16T15:24:41.763Z,1016.38
2023-03-16T15:52:55.340Z,1016.31
2023-03-16T16:21:25.201Z,1016.1
2023-03-16T16:49:32.319Z,1015.94
2023-03-16T17:17:47.756Z,1016
2023-03-16T17:46:04.366Z,1015.96
2023-03-16T18:14:18.797Z,1015.78
2023-03-16T18:42:33.971Z,1015.63
2023-03-16T19:10:54.120Z,1015.54
2023-03-16T19:39:08.247Z,1015.27
2023-03-16T20:07:18.008Z,1015.17
2023-03-16T20:35:39.022Z,1015.17
2023-03-16T21:04:00.451Z,1015.04
2023-03-16T21:32:21.958Z,1014.8
2023-03-16T22:00:38.174Z,1014.63
2023-03-16T22:29:35.022Z,1014.69
2023-03-16T22:58:24.181Z,1014.63
2023-03-16T23:27:21.836Z,1014.43
2023-03-16T23:56:08.718Z,1013.82
